NOZ2GH ENBR-ENGM
Flight info
| Callsign | NOZ2GH |
|---|---|
| Flight time | 0h 36m |
| Altitude | 29000 |
| Route | GOKAB DCT ULVAN DCT ADOPI |
| Aircraft | B738/M-SDE2E3GHIJ1LRWXY/LB1 |
Departure
| Time | 2026-05-05 17:48 |
|---|---|
| Airport | Bergen Airport, Flesland (ENBR) |
Arrival
| Time | 2026-05-05 18:25 |
|---|---|
| Airport | Oslo-Gardermoen International Airport (ENGM) |
| Time | Latitude | Longitude | Altitude | Speed | Heading |
|---|---|---|---|---|---|
| 2026-05-05 17:05 | 60.28700 | 5.22917 | 172 ft | 0 kts | 80° |
| 2026-05-05 17:40 | 60.28700 | 5.22916 | 172 ft | 1 kts | 80° |
| 2026-05-05 17:40 | 60.28698 | 5.22888 | 172 ft | 3 kts | 80° |
| 2026-05-05 17:41 | 60.28694 | 5.22848 | 172 ft | 3 kts | 80° |
| 2026-05-05 17:41 | 60.28693 | 5.22831 | 172 ft | 0 kts | 80° |
| 2026-05-05 17:44 | 60.28695 | 5.22838 | 172 ft | 1 kts | 57° |
| 2026-05-05 17:44 | 60.28703 | 5.22839 | 172 ft | 2 kts | 1° |
| 2026-05-05 17:45 | 60.28719 | 5.22805 | 172 ft | 5 kts | 298° |
| 2026-05-05 17:45 | 60.28720 | 5.22676 | 169 ft | 12 kts | 260° |
| 2026-05-05 17:45 | 60.28699 | 5.22494 | 165 ft | 13 kts | 248° |
| 2026-05-05 17:45 | 60.28637 | 5.22380 | 165 ft | 12 kts | 190° |
| 2026-05-05 17:46 | 60.28552 | 5.22402 | 163 ft | 13 kts | 171° |
| 2026-05-05 17:46 | 60.28461 | 5.22433 | 163 ft | 13 kts | 170° |
| 2026-05-05 17:46 | 60.28357 | 5.22469 | 159 ft | 18 kts | 170° |
| 2026-05-05 17:46 | 60.28285 | 5.22423 | 154 ft | 11 kts | 246° |
| 2026-05-05 17:47 | 60.28272 | 5.22269 | 154 ft | 11 kts | 264° |
| 2026-05-05 17:47 | 60.28291 | 5.22180 | 157 ft | 4 kts | 331° |
| 2026-05-05 17:47 | 60.28361 | 5.22148 | 158 ft | 22 kts | 350° |
| 2026-05-05 17:47 | 60.28696 | 5.22034 | 162 ft | 78 kts | 350° |
| 2026-05-05 17:48 | 60.29421 | 5.21790 | 154 ft | 132 kts | 351° |
| 2026-05-05 17:48 | 60.30427 | 5.21464 | 429 ft | 151 kts | 350° |
| 2026-05-05 17:48 | 60.31490 | 5.21153 | 1021 ft | 159 kts | 348° |
| 2026-05-05 17:48 | 60.32609 | 5.20779 | 1643 ft | 166 kts | 347° |
| 2026-05-05 17:49 | 60.33789 | 5.20363 | 2158 ft | 180 kts | 347° |
| 2026-05-05 17:49 | 60.35078 | 5.20004 | 2732 ft | 191 kts | 355° |
| 2026-05-05 17:49 | 60.36425 | 5.20180 | 3437 ft | 204 kts | 11° |
| 2026-05-05 17:49 | 60.37707 | 5.21736 | 3904 ft | 234 kts | 47° |
| 2026-05-05 17:50 | 60.38382 | 5.24839 | 4460 ft | 259 kts | 82° |
| 2026-05-05 17:50 | 60.38220 | 5.28550 | 5216 ft | 271 kts | 102° |
| 2026-05-05 17:50 | 60.37770 | 5.32247 | 6200 ft | 273 kts | 103° |
| 2026-05-05 17:50 | 60.37437 | 5.36056 | 7048 ft | 278 kts | 94° |
| 2026-05-05 17:51 | 60.37396 | 5.39993 | 7909 ft | 283 kts | 87° |
| 2026-05-05 17:51 | 60.37491 | 5.43998 | 8772 ft | 288 kts | 85° |
| 2026-05-05 17:51 | 60.37581 | 5.48076 | 9641 ft | 293 kts | 86° |
| 2026-05-05 17:51 | 60.37614 | 5.52225 | 10441 ft | 299 kts | 88° |
| 2026-05-05 17:52 | 60.37606 | 5.56520 | 11017 ft | 313 kts | 88° |
| 2026-05-05 17:52 | 60.37588 | 5.61022 | 11558 ft | 328 kts | 88° |
| 2026-05-05 17:52 | 60.37576 | 5.65643 | 12449 ft | 328 kts | 88° |
| 2026-05-05 17:52 | 60.37573 | 5.70224 | 13528 ft | 325 kts | 87° |
| 2026-05-05 17:53 | 60.37575 | 5.74825 | 14343 ft | 330 kts | 87° |
| 2026-05-05 17:53 | 60.37576 | 5.79443 | 15081 ft | 336 kts | 87° |
| 2026-05-05 17:53 | 60.37574 | 5.84207 | 15856 ft | 342 kts | 87° |
| 2026-05-05 17:53 | 60.37566 | 5.89050 | 16652 ft | 347 kts | 88° |
| 2026-05-05 17:54 | 60.37555 | 5.93960 | 17409 ft | 353 kts | 88° |
| 2026-05-05 17:54 | 60.37542 | 5.98960 | 18172 ft | 358 kts | 88° |
| 2026-05-05 17:54 | 60.37528 | 6.04038 | 18823 ft | 364 kts | 88° |
| 2026-05-05 17:54 | 60.37513 | 6.09215 | 19396 ft | 373 kts | 88° |
| 2026-05-05 17:55 | 60.37495 | 6.14518 | 19925 ft | 382 kts | 88° |
| 2026-05-05 17:55 | 60.37474 | 6.19948 | 20473 ft | 391 kts | 88° |
| 2026-05-05 17:55 | 60.37450 | 6.25491 | 21040 ft | 398 kts | 89° |
| 2026-05-05 17:55 | 60.37423 | 6.31065 | 21606 ft | 406 kts | 89° |
| 2026-05-05 17:56 | 60.37393 | 6.36829 | 22147 ft | 414 kts | 89° |
| 2026-05-05 17:56 | 60.37361 | 6.42714 | 22684 ft | 423 kts | 89° |
| 2026-05-05 17:56 | 60.37325 | 6.48716 | 23247 ft | 431 kts | 89° |
| 2026-05-05 17:56 | 60.37285 | 6.54832 | 23765 ft | 439 kts | 89° |
| 2026-05-05 17:57 | 60.37242 | 6.61057 | 24259 ft | 446 kts | 89° |
| 2026-05-05 17:57 | 60.37195 | 6.67352 | 24775 ft | 450 kts | 90° |
| 2026-05-05 17:57 | 60.37144 | 6.73697 | 25341 ft | 453 kts | 90° |
| 2026-05-05 17:57 | 60.37091 | 6.80085 | 25874 ft | 458 kts | 90° |
| 2026-05-05 17:58 | 60.37034 | 6.86553 | 26386 ft | 463 kts | 90° |
| 2026-05-05 17:58 | 60.36973 | 6.93075 | 26953 ft | 465 kts | 90° |
| 2026-05-05 17:58 | 60.36909 | 6.99611 | 27586 ft | 465 kts | 90° |
| 2026-05-05 17:58 | 60.36841 | 7.06142 | 28215 ft | 465 kts | 91° |
| 2026-05-05 17:59 | 60.36770 | 7.12666 | 28856 ft | 464 kts | 91° |
| 2026-05-05 17:59 | 60.36697 | 7.19164 | 28963 ft | 473 kts | 91° |
| 2026-05-05 17:59 | 60.36620 | 7.25760 | 28982 ft | 465 kts | 91° |
| 2026-05-05 18:00 | 60.36457 | 7.38702 | 28979 ft | 461 kts | 91° |
| 2026-05-05 18:00 | 60.36284 | 7.51586 | 28985 ft | 457 kts | 92° |
| 2026-05-05 18:01 | 60.36098 | 7.64458 | 28979 ft | 458 kts | 92° |
| 2026-05-05 18:01 | 60.35901 | 7.77220 | 28981 ft | 458 kts | 92° |
| 2026-05-05 18:01 | 60.35796 | 7.83700 | 28360 ft | 465 kts | 92° |
| 2026-05-05 18:02 | 60.35688 | 7.90234 | 27631 ft | 465 kts | 92° |
| 2026-05-05 18:02 | 60.35576 | 7.96769 | 26919 ft | 465 kts | 92° |
| 2026-05-05 18:02 | 60.35461 | 8.03299 | 26238 ft | 465 kts | 92° |
| 2026-05-05 18:02 | 60.35343 | 8.09818 | 25536 ft | 464 kts | 92° |
| 2026-05-05 18:03 | 60.35222 | 8.16324 | 24885 ft | 463 kts | 92° |
| 2026-05-05 18:03 | 60.35099 | 8.22797 | 24250 ft | 462 kts | 92° |
| 2026-05-05 18:03 | 60.34972 | 8.29264 | 23630 ft | 460 kts | 92° |
| 2026-05-05 18:03 | 60.34843 | 8.35704 | 22884 ft | 458 kts | 92° |
| 2026-05-05 18:04 | 60.34711 | 8.42094 | 22259 ft | 452 kts | 92° |
| 2026-05-05 18:04 | 60.34579 | 8.48357 | 21819 ft | 441 kts | 92° |
| 2026-05-05 18:04 | 60.34448 | 8.54470 | 21419 ft | 430 kts | 92° |
| 2026-05-05 18:04 | 60.34317 | 8.60433 | 21037 ft | 420 kts | 92° |
| 2026-05-05 18:05 | 60.34188 | 8.66174 | 20653 ft | 410 kts | 91° |
| 2026-05-05 18:05 | 60.34059 | 8.71852 | 20289 ft | 400 kts | 91° |
| 2026-05-05 18:05 | 60.33930 | 8.77389 | 19941 ft | 390 kts | 91° |
| 2026-05-05 18:05 | 60.33802 | 8.82785 | 19589 ft | 381 kts | 91° |
| 2026-05-05 18:06 | 60.33675 | 8.88057 | 19254 ft | 371 kts | 91° |
| 2026-05-05 18:06 | 60.33592 | 8.91495 | 19026 ft | 369 kts | 91° |
| 2026-05-05 18:06 | 60.33422 | 8.98384 | 18578 ft | 366 kts | 91° |
| 2026-05-05 18:06 | 60.33293 | 9.03500 | 18252 ft | 364 kts | 91° |
| 2026-05-05 18:07 | 60.33163 | 9.08582 | 17897 ft | 361 kts | 91° |
| 2026-05-05 18:07 | 60.33032 | 9.13618 | 17561 ft | 357 kts | 91° |
| 2026-05-05 18:07 | 60.32900 | 9.18598 | 17221 ft | 353 kts | 91° |
| 2026-05-05 18:07 | 60.32768 | 9.23521 | 16917 ft | 349 kts | 91° |
| 2026-05-05 18:08 | 60.32634 | 9.28383 | 16605 ft | 345 kts | 91° |
| 2026-05-05 18:08 | 60.32503 | 9.33121 | 16291 ft | 340 kts | 91° |
| 2026-05-05 18:08 | 60.32355 | 9.37857 | 15995 ft | 336 kts | 96° |
| 2026-05-05 18:08 | 60.31929 | 9.42463 | 15685 ft | 332 kts | 101° |
| 2026-05-05 18:09 | 60.31457 | 9.46993 | 15380 ft | 328 kts | 102° |
| 2026-05-05 18:09 | 60.30984 | 9.51445 | 15096 ft | 323 kts | 102° |
| 2026-05-05 18:09 | 60.30512 | 9.55845 | 14794 ft | 319 kts | 102° |
| 2026-05-05 18:09 | 60.30047 | 9.60186 | 14506 ft | 315 kts | 102° |
| 2026-05-05 18:10 | 60.29589 | 9.64469 | 14220 ft | 310 kts | 102° |
| 2026-05-05 18:10 | 60.29137 | 9.68689 | 13943 ft | 306 kts | 102° |
| 2026-05-05 18:10 | 60.28687 | 9.72851 | 13681 ft | 302 kts | 102° |
| 2026-05-05 18:10 | 60.28242 | 9.76962 | 13365 ft | 300 kts | 102° |
| 2026-05-05 18:11 | 60.27798 | 9.81075 | 13088 ft | 310 kts | 102° |
| 2026-05-05 18:11 | 60.27234 | 9.85302 | 12826 ft | 314 kts | 111° |
| 2026-05-05 18:11 | 60.26224 | 9.89137 | 12556 ft | 307 kts | 126° |
| 2026-05-05 18:11 | 60.24990 | 9.92586 | 12263 ft | 301 kts | 127° |
| 2026-05-05 18:12 | 60.23765 | 9.95955 | 11971 ft | 296 kts | 127° |
| 2026-05-05 18:12 | 60.22540 | 9.99299 | 11933 ft | 304 kts | 127° |
| 2026-05-05 18:12 | 60.21264 | 10.02785 | 11918 ft | 309 kts | 127° |
| 2026-05-05 18:12 | 60.20007 | 10.06233 | 11915 ft | 304 kts | 127° |
| 2026-05-05 18:13 | 60.18758 | 10.09655 | 11910 ft | 305 kts | 128° |
| 2026-05-05 18:13 | 60.17518 | 10.13045 | 11906 ft | 305 kts | 128° |
| 2026-05-05 18:13 | 60.16259 | 10.16484 | 11902 ft | 306 kts | 128° |
| 2026-05-05 18:13 | 60.14988 | 10.19905 | 11896 ft | 303 kts | 132° |
| 2026-05-05 18:14 | 60.13384 | 10.22464 | 11899 ft | 289 kts | 157° |
| 2026-05-05 18:14 | 60.11514 | 10.23462 | 11911 ft | 272 kts | 181° |
| 2026-05-05 18:14 | 60.09672 | 10.23332 | 11892 ft | 262 kts | 176° |
| 2026-05-05 18:14 | 60.08019 | 10.24685 | 11916 ft | 258 kts | 145° |
| 2026-05-05 18:15 | 60.06875 | 10.27431 | 11480 ft | 262 kts | 115° |
| 2026-05-05 18:15 | 60.06229 | 10.30857 | 10975 ft | 264 kts | 109° |
| 2026-05-05 18:15 | 60.05635 | 10.34356 | 10497 ft | 266 kts | 109° |
| 2026-05-05 18:15 | 60.05039 | 10.37849 | 10072 ft | 265 kts | 109° |
| 2026-05-05 18:16 | 60.04429 | 10.41310 | 9659 ft | 263 kts | 110° |
| 2026-05-05 18:16 | 60.03812 | 10.44736 | 9215 ft | 261 kts | 110° |
| 2026-05-05 18:16 | 60.03204 | 10.48084 | 8797 ft | 259 kts | 110° |
| 2026-05-05 18:16 | 60.02592 | 10.51460 | 8374 ft | 257 kts | 110° |
| 2026-05-05 18:17 | 60.01987 | 10.54810 | 7956 ft | 255 kts | 110° |
| 2026-05-05 18:17 | 60.01386 | 10.58141 | 7545 ft | 254 kts | 110° |
| 2026-05-05 18:17 | 60.00785 | 10.61459 | 7120 ft | 253 kts | 110° |
| 2026-05-05 18:17 | 60.00185 | 10.64757 | 6732 ft | 252 kts | 110° |
| 2026-05-05 18:18 | 59.99588 | 10.68025 | 6372 ft | 249 kts | 110° |
| 2026-05-05 18:18 | 59.98996 | 10.71275 | 6014 ft | 249 kts | 110° |
| 2026-05-05 18:18 | 59.98406 | 10.74508 | 5692 ft | 247 kts | 110° |
| 2026-05-05 18:18 | 59.97823 | 10.77723 | 5351 ft | 246 kts | 108° |
| 2026-05-05 18:19 | 59.97575 | 10.81062 | 5012 ft | 244 kts | 86° |
| 2026-05-05 18:19 | 59.97871 | 10.84355 | 4733 ft | 240 kts | 75° |
| 2026-05-05 18:19 | 59.98258 | 10.87529 | 4533 ft | 235 kts | 74° |
| 2026-05-05 18:19 | 59.98649 | 10.90651 | 4429 ft | 228 kts | 74° |
| 2026-05-05 18:20 | 59.99030 | 10.93675 | 4326 ft | 222 kts | 72° |
| 2026-05-05 18:20 | 59.99793 | 10.96219 | 4223 ft | 213 kts | 36° |
| 2026-05-05 18:20 | 60.01097 | 10.97404 | 4068 ft | 201 kts | 13° |
| 2026-05-05 18:20 | 60.02403 | 10.98164 | 3892 ft | 194 kts | 12° |
| 2026-05-05 18:21 | 60.03683 | 10.98889 | 3633 ft | 187 kts | 12° |
| 2026-05-05 18:21 | 60.04925 | 10.99596 | 3387 ft | 184 kts | 12° |
| 2026-05-05 18:21 | 60.06158 | 11.00299 | 3164 ft | 183 kts | 12° |
| 2026-05-05 18:21 | 60.07355 | 11.00984 | 2904 ft | 175 kts | 11° |
| 2026-05-05 18:22 | 60.08501 | 11.01639 | 2684 ft | 169 kts | 11° |
| 2026-05-05 18:22 | 60.09628 | 11.02283 | 2476 ft | 167 kts | 12° |
| 2026-05-05 18:22 | 60.10722 | 11.02911 | 2242 ft | 160 kts | 11° |
| 2026-05-05 18:22 | 60.11773 | 11.03512 | 2066 ft | 161 kts | 11° |
| 2026-05-05 18:23 | 60.12839 | 11.04123 | 1822 ft | 156 kts | 12° |
| 2026-05-05 18:23 | 60.13854 | 11.04706 | 1609 ft | 149 kts | 11° |
| 2026-05-05 18:23 | 60.14851 | 11.05273 | 1429 ft | 150 kts | 12° |
| 2026-05-05 18:23 | 60.15858 | 11.05855 | 1252 ft | 151 kts | 12° |
| 2026-05-05 18:24 | 60.16862 | 11.06412 | 1060 ft | 148 kts | 13° |
| 2026-05-05 18:24 | 60.17853 | 11.06991 | 852 ft | 148 kts | 13° |
| 2026-05-05 18:24 | 60.18836 | 11.07568 | 680 ft | 145 kts | 13° |
| 2026-05-05 18:24 | 60.19602 | 11.08011 | 673 ft | 69 kts | 16° |
| 2026-05-05 18:25 | 60.19931 | 11.08207 | 674 ft | 12 kts | 33° |
| 2026-05-05 18:25 | 60.19943 | 11.08251 | 673 ft | 11 kts | 78° |
| 2026-05-05 18:25 | 60.19891 | 11.08456 | 673 ft | 8 kts | 106° |
| 2026-05-05 18:25 | 60.19889 | 11.08468 | 675 ft | 0 kts | 105° |
| 2026-05-05 18:27 | 60.19882 | 11.08519 | 677 ft | 7 kts | 105° |
| 2026-05-05 18:27 | 60.19864 | 11.08644 | 675 ft | 12 kts | 107° |
| 2026-05-05 18:27 | 60.19837 | 11.08833 | 674 ft | 17 kts | 106° |
| 2026-05-05 18:28 | 60.19762 | 11.09352 | 679 ft | 20 kts | 105° |
| 2026-05-05 18:28 | 60.19726 | 11.09603 | 682 ft | 16 kts | 108° |
| 2026-05-05 18:28 | 60.19695 | 11.09798 | 684 ft | 13 kts | 106° |
| 2026-05-05 18:29 | 60.19679 | 11.09914 | 682 ft | 6 kts | 105° |
| 2026-05-05 18:29 | 60.19675 | 11.09940 | 682 ft | 0 kts | 105° |
| 2026-05-05 18:30 | 60.19673 | 11.09957 | 684 ft | 3 kts | 105° |
| 2026-05-05 18:31 | 60.19670 | 11.09975 | 684 ft | 0 kts | 105° |